Terminal Aerodrome Forecast
Issued by NWS

Home | Current Version | Previous Version | Text Only | Print | Product List | Glossary On
Versions: 1 2 3 4 5 6 7 8 9 10 11 12 13 14
000
FTUS43 KMPX 220500
TAFRNH
TAF
KRNH 220520Z 2206/2306 VRB03KT P6SM SKC
     FM221000 VRB03KT 4SM BR SKC
     FM221300 25006KT P6SM SKC
     FM230100 20002KT P6SM SKC=

USA.gov is the U.S. government's official web portal to all federal, state and local government web resources and services.